Time;durP1;ratioP1;P1;durP2;ratioP2;P2;SDS_P1;SDS_P2;PMS_P1;PMS_P2;Temp;Humidity;BMP_temperature;BMP_pressure;BME280_temperature;BME280_humidity;BME280_pressure;Samples;Min_cycle;Max_cycle;Signal;HPM_P1;HPM_P2
2022/11/03 00:00:26;;;;;;;0.40;0.40;;;;;;;5.29;100.00;99337.34;4996839;28;20033;-84
2022/11/03 00:02:52;;;;;;;0.40;0.40;;;;;;;5.39;100.00;99344.28;4994782;28;20471;-85
2022/11/03 00:08:02;;;;;;;0.40;0.40;;;;;;;5.46;100.00;99331.91;5010690;28;20040;-85
2022/11/03 00:10:29;;;;;;;0.40;0.40;;;;;;;5.55;100.00;99341.47;5010680;28;20143;-85
2022/11/03 00:12:55;;;;;;;0.30;0.30;;;;;;;5.43;100.00;99332.25;5010404;28;20041;-88
2022/11/03 00:15:20;;;;;;;0.40;0.40;;;;;;;5.31;100.00;99326.50;5002518;28;20541;-86
2022/11/03 00:17:46;;;;;;;0.40;0.40;;;;;;;5.21;100.00;99328.56;5011615;28;20430;-85
2022/11/03 00:20:12;;;;;;;0.30;0.30;;;;;;;5.12;100.00;99340.28;5022395;28;20479;-85
2022/11/03 00:22:37;;;;;;;0.40;0.40;;;;;;;5.01;100.00;99338.84;5004486;28;20033;-85
2022/11/03 00:25:03;;;;;;;0.35;0.35;;;;;;;4.88;100.00;99326.09;5010808;28;20464;-85
2022/11/03 00:27:29;;;;;;;0.40;0.40;;;;;;;4.88;100.00;99323.41;5009002;28;20083;-89
2022/11/03 00:29:54;;;;;;;0.40;0.40;;;;;;;4.82;100.00;99327.63;4995132;28;20029;-85
2022/11/03 00:32:20;;;;;;;0.40;0.40;;;;;;;4.73;100.00;99320.66;5009811;28;20041;-85
2022/11/03 00:34:46;;;;;;;0.40;0.40;;;;;;;4.45;100.00;99284.84;5025258;28;20041;-86
2022/11/03 00:37:12;;;;;;;0.40;0.40;;;;;;;4.28;100.00;99279.56;5027017;28;20029;-85
2022/11/03 00:39:37;;;;;;;0.40;0.40;;;;;;;4.52;100.00;99317.75;5008503;28;20983;-87
2022/11/03 00:42:03;;;;;;;0.30;0.30;;;;;;;4.57;100.00;99321.56;4994002;28;20034;-90
2022/11/03 00:44:29;;;;;;;0.50;0.50;;;;;;;4.47;100.00;99288.97;5008445;28;22337;-87
2022/11/03 00:46:55;;;;;;;0.40;0.40;;;;;;;4.73;100.00;99318.00;5021839;28;20495;-85
2022/11/03 00:49:20;;;;;;;0.40;0.40;;;;;;;4.88;100.00;99310.09;5009321;28;20038;-89
2022/11/03 00:51:46;;;;;;;0.40;0.40;;;;;;;5.01;100.00;99317.53;4994476;28;20099;-88
2022/11/03 00:54:12;;;;;;;0.40;0.40;;;;;;;4.90;100.00;99291.31;5023340;28;20467;-89
2022/11/03 00:56:39;;;;;;;0.40;0.40;;;;;;;4.96;100.00;99298.59;5043307;28;20060;-88
2022/11/03 00:59:06;;;;;;;0.40;0.40;;;;;;;4.99;100.00;99292.91;5010331;28;20483;-86
2022/11/03 01:01:39;;;;;;;0.30;0.30;;;;;;;5.03;100.00;99304.88;5012076;28;20483;-85
2022/11/03 01:06:50;;;;;;;0.40;0.40;;;;;;;5.10;100.00;99294.34;5022820;28;20041;-87
2022/11/03 01:09:27;;;;;;;0.40;0.40;;;;;;;5.00;100.00;99284.75;5009049;28;20037;-86
2022/11/03 01:12:11;;;;;;;0.40;0.40;;;;;;;4.92;100.00;99270.63;5022505;28;20045;-86
2022/11/03 01:14:39;;;;;;;0.40;0.40;;;;;;;5.01;100.00;99280.25;4991369;28;20740;-89
2022/11/03 01:17:07;;;;;;;0.40;0.40;;;;;;;4.90;100.00;99259.34;5021545;28;20038;-88
2022/11/03 01:19:32;;;;;;;0.40;0.40;;;;;;;4.97;100.00;99282.41;5026202;28;20073;-86
2022/11/03 01:21:58;;;;;;;0.40;0.40;;;;;;;5.04;100.00;99279.88;5008811;28;20069;-86
2022/11/03 01:24:23;;;;;;;0.30;0.30;;;;;;;5.03;100.00;99268.41;5020585;28;20034;-85
2022/11/03 01:26:49;;;;;;;0.40;0.40;;;;;;;4.88;100.00;99251.50;5027141;28;20056;-87
2022/11/03 01:29:16;;;;;;;0.30;0.30;;;;;;;5.00;100.00;99275.91;5056889;28;20045;-86
2022/11/03 01:31:42;;;;;;;0.40;0.40;;;;;;;4.76;100.00;99226.28;5004753;28;20083;-88
2022/11/03 01:34:15;;;;;;;0.40;0.40;;;;;;;4.91;100.00;99256.47;4991310;28;20033;-90
2022/11/03 01:36:41;;;;;;;0.40;0.40;;;;;;;4.92;100.00;99265.28;4995435;28;20035;-86
2022/11/03 01:39:10;;;;;;;0.40;0.40;;;;;;;4.80;100.00;99252.38;5010022;28;20124;-87
2022/11/03 01:41:36;;;;;;;0.40;0.40;;;;;;;4.69;100.00;99246.66;5025683;28;20029;-87
2022/11/03 01:44:07;;;;;;;0.40;0.40;;;;;;;4.70;100.00;99250.94;5007446;28;20050;-86
2022/11/03 01:47:06;;;;;;;0.40;0.40;;;;;;;4.57;100.00;99244.34;5024309;28;20033;-86
2022/11/03 01:49:49;;;;;;;0.40;0.40;;;;;;;4.60;100.00;99245.84;4990759;28;20069;-88
2022/11/03 01:52:17;;;;;;;0.40;0.40;;;;;;;4.63;100.00;99229.50;4990638;28;20443;-86
2022/11/03 01:54:45;;;;;;;0.40;0.40;;;;;;;4.65;100.00;99238.16;5008530;28;20061;-87
2022/11/03 01:57:17;;;;;;;0.40;0.40;;;;;;;4.56;100.00;99223.25;5012266;28;20033;-89
2022/11/03 01:59:43;;;;;;;0.43;0.43;;;;;;;4.56;100.00;99217.94;5011378;28;20117;-88
2022/11/03 02:02:10;;;;;;;0.40;0.40;;;;;;;4.67;100.00;99235.34;5010112;28;20057;-86
2022/11/03 02:04:35;;;;;;;0.40;0.40;;;;;;;4.70;100.00;99229.66;4990410;28;20076;-86
2022/11/03 02:07:38;;;;;;;0.40;0.40;;;;;;;4.81;100.00;99216.75;5024268;28;20061;-87
2022/11/03 02:10:03;;;;;;;;;;;;;;;5.01;100.00;99229.63;5036264;28;20382;-84
2022/11/03 02:12:32;;;;;;;0.40;0.40;;;;;;;5.15;100.00;99226.19;5040481;28;19920;-87
2022/11/03 02:15:02;;;;;;;0.40;0.40;;;;;;;5.41;100.00;99240.97;5002914;28;20093;-87
2022/11/03 02:17:29;;;;;;;0.40;0.40;;;;;;;5.52;100.00;99245.88;5009096;28;20566;-86
2022/11/03 02:20:05;;;;;;;0.40;0.40;;;;;;;5.51;100.00;99231.72;5012036;28;20026;-88
2022/11/03 02:23:15;;;;;;;0.40;0.40;;;;;;;5.66;100.00;99241.56;5024414;28;20112;-86
2022/11/03 02:25:52;;;;;;;0.40;0.40;;;;;;;5.58;100.00;99229.13;5027551;28;20500;-87
2022/11/03 02:28:21;;;;;;;0.45;0.45;;;;;;;5.44;100.00;99216.63;5004525;28;20040;-91
2022/11/03 02:30:50;;;;;;;0.40;0.40;;;;;;;5.38;100.00;99218.16;5025034;28;20472;-87
2022/11/03 02:33:46;;;;;;;0.40;0.40;;;;;;;5.12;100.00;99194.56;5007391;28;20160;-85
2022/11/03 02:36:20;;;;;;;0.40;0.40;;;;;;;5.06;100.00;99213.94;5007527;28;20040;-86
2022/11/03 02:38:56;;;;;;;;;;;;;;;4.90;100.00;99203.41;5025524;28;20083;-87
2022/11/03 02:41:23;;;;;;;0.30;0.30;;;;;;;4.78;100.00;99197.66;5010502;28;19925;-87
2022/11/03 02:43:49;;;;;;;0.50;0.50;;;;;;;4.58;100.00;99173.34;5007078;28;20451;-87
2022/11/03 02:46:16;;;;;;;0.40;0.40;;;;;;;4.57;100.00;99191.13;5025890;28;20045;-85
2022/11/03 02:48:42;;;;;;;0.40;0.40;;;;;;;4.46;100.00;99186.19;4992960;28;20034;-87
2022/11/03 02:51:07;;;;;;;0.30;0.30;;;;;;;4.36;100.00;99189.06;4999799;28;20087;-88
2022/11/03 02:53:38;;;;;;;0.40;0.40;;;;;;;4.27;100.00;99183.97;5029627;28;20043;-87
2022/11/03 02:56:09;;;;;;;0.40;0.40;;;;;;;3.90;100.00;99134.94;5027553;28;20037;-85
2022/11/03 02:58:54;;;;;;;0.40;0.40;;;;;;;4.12;100.00;99174.06;5028565;28;20056;-89
2022/11/03 03:02:02;;;;;;;0.40;0.40;;;;;;;4.06;100.00;99168.59;5008587;28;20037;-87
2022/11/03 03:04:39;;;;;;;0.30;0.30;;;;;;;3.90;100.00;99149.06;5003083;28;20049;-87
2022/11/03 03:07:35;;;;;;;0.40;0.40;;;;;;;3.86;100.00;99165.50;4996354;28;20048;-90
2022/11/03 03:10:20;;;;;;;0.40;0.40;;;;;;;3.78;100.00;99173.53;5040633;28;20056;-89
2022/11/03 03:12:48;;;;;;;0.40;0.40;;;;;;;3.66;100.00;99168.56;5009682;28;20117;-87
2022/11/03 03:15:16;;;;;;;0.40;0.40;;;;;;;3.45;100.00;99150.53;5029072;28;20038;-86
2022/11/03 03:17:53;;;;;;;0.40;0.40;;;;;;;3.60;100.00;99166.59;5030541;28;20025;-87
2022/11/03 03:20:24;;;;;;;0.30;0.30;;;;;;;3.49;100.00;99146.53;5011022;28;20099;-90
2022/11/03 03:23:11;;;;;;;0.40;0.40;;;;;;;3.51;100.00;99152.50;5012725;28;20132;-87
2022/11/03 03:25:44;;;;;;;0.40;0.40;;;;;;;3.45;100.00;99149.69;5027195;28;20124;-87
2022/11/03 03:28:14;;;;;;;0.40;0.40;;;;;;;3.55;100.00;99150.34;4992799;28;20070;-88
2022/11/03 03:30:41;;;;;;;0.38;0.38;;;;;;;3.28;100.00;99101.91;4997590;28;20029;-86
2022/11/03 03:33:08;;;;;;;0.40;0.40;;;;;;;3.55;100.00;99137.06;5026506;28;20457;-89
2022/11/03 03:35:35;;;;;;;0.40;0.40;;;;;;;3.52;100.00;99132.09;5018545;28;20418;-89
2022/11/03 03:38:05;;;;;;;0.40;0.40;;;;;;;3.47;100.00;99132.59;5013773;28;20037;-87
2022/11/03 03:40:36;;;;;;;0.40;0.40;;;;;;;3.40;100.00;99120.97;5013894;28;20037;-87
2022/11/03 03:43:03;;;;;;;0.40;0.40;;;;;;;3.40;100.00;99133.44;5026356;28;20081;-88
2022/11/03 03:45:30;;;;;;;0.40;0.40;;;;;;;3.13;100.00;99097.47;5029062;28;20467;-87
2022/11/03 03:47:56;;;;;;;0.40;0.40;;;;;;;3.45;100.00;99134.56;4989744;28;20065;-87
2022/11/03 03:50:24;;;;;;;0.40;0.40;;;;;;;3.47;100.00;99132.59;5014664;28;20038;-89
2022/11/03 03:52:54;;;;;;;0.40;0.40;;;;;;;3.56;100.00;99137.88;5011388;28;20392;-87
2022/11/03 03:55:20;;;;;;;0.40;0.40;;;;;;;3.60;100.00;99139.19;5010676;28;20137;-86
2022/11/03 03:57:46;;;;;;;0.40;0.40;;;;;;;3.53;100.00;99126.59;4996861;28;20037;-89
2022/11/03 04:00:14;;;;;;;0.40;0.40;;;;;;;3.51;100.00;99119.78;5009235;28;20052;-87
2022/11/03 04:02:41;;;;;;;0.40;0.40;;;;;;;3.50;100.00;99115.47;5010022;28;20034;-88
2022/11/03 04:05:06;;;;;;;0.40;0.40;;;;;;;3.44;100.00;99097.53;4994058;28;20316;-86
2022/11/03 04:07:47;;;;;;;0.40;0.40;;;;;;;3.55;100.00;99113.13;5026925;28;20168;-87
2022/11/03 04:10:17;;;;;;;0.40;0.40;;;;;;;3.61;100.00;99114.28;5027885;28;20533;-89
2022/11/03 04:23:55;;;;;;;0.40;0.40;;;;;;;3.86;100.00;99101.69;5030091;28;20530;-89
2022/11/03 04:26:21;;;;;;;0.40;0.40;;;;;;;3.81;100.00;99074.81;5011914;28;20025;-87
2022/11/03 04:28:47;;;;;;;0.40;0.40;;;;;;;3.95;100.00;99098.84;5024731;28;20036;-87
2022/11/03 04:31:14;;;;;;;0.32;0.32;;;;;;;4.01;100.00;99102.63;4991503;28;20037;-88
2022/11/03 04:33:41;;;;;;;0.40;0.40;;;;;;;4.02;100.00;99106.94;5027428;28;20026;-87
2022/11/03 04:36:21;;;;;;;0.40;0.40;;;;;;;3.94;100.00;99096.34;5008714;28;20115;-87
2022/11/03 04:38:47;;;;;;;0.40;0.40;;;;;;;3.93;100.00;99106.16;5011075;28;20029;-87
2022/11/03 04:41:23;;;;;;;0.40;0.40;;;;;;;3.93;100.00;99106.16;5027912;28;20044;-87
2022/11/03 04:43:50;;;;;;;0.30;0.30;;;;;;;4.01;100.00;99107.13;5025848;28;20069;-87
2022/11/03 04:46:22;;;;;;;0.40;0.40;;;;;;;4.10;100.00;99106.91;4994919;28;20030;-87
2022/11/03 04:48:48;;;;;;;0.40;0.40;;;;;;;4.08;100.00;99097.47;5007274;28;20026;-87
2022/11/03 04:51:16;;;;;;;0.40;0.40;;;;;;;4.05;100.00;99103.09;5026066;28;20030;-87
2022/11/03 04:53:49;;;;;;;0.40;0.40;;;;;;;4.01;100.00;99092.00;5013512;28;20030;-86
2022/11/03 04:56:17;;;;;;;0.40;0.40;;;;;;;4.00;100.00;99094.84;5005639;28;20476;-87
2022/11/03 04:58:43;;;;;;;0.40;0.40;;;;;;;3.91;100.00;99086.88;4995687;28;20479;-87
2022/11/03 05:01:12;;;;;;;0.35;0.35;;;;;;;3.95;100.00;99082.06;5028903;28;20038;-87
2022/11/03 05:03:38;;;;;;;0.40;0.40;;;;;;;3.90;100.00;99073.78;5029866;28;20021;-87
2022/11/03 05:06:13;;;;;;;0.40;0.40;;;;;;;3.98;100.00;99087.03;5028789;28;20036;-86
2022/11/03 05:08:39;;;;;;;0.40;0.40;;;;;;;4.06;100.00;99088.81;5012197;28;20058;-86
2022/11/03 05:11:33;;;;;;;0.40;0.40;;;;;;;4.13;100.00;99079.16;4995738;28;20075;-88
2022/11/03 05:14:19;;;;;;;0.40;0.40;;;;;;;4.16;100.00;99073.47;5018454;28;20480;-88
2022/11/03 05:16:45;;;;;;;0.40;0.40;;;;;;;4.10;100.00;99068.81;4988695;28;20495;-86
2022/11/03 05:19:15;;;;;;;0.40;0.40;;;;;;;4.12;100.00;99077.47;5010056;28;20047;-90
2022/11/03 05:21:40;;;;;;;0.40;0.40;;;;;;;4.12;100.00;99075.63;5010770;28;20101;-87
2022/11/03 05:24:11;;;;;;;0.40;0.40;;;;;;;4.15;100.00;99061.16;4994618;28;20068;-87
2022/11/03 05:26:36;;;;;;;0.40;0.40;;;;;;;4.13;100.00;99058.69;5010139;28;20088;-87
2022/11/03 05:29:10;;;;;;;0.40;0.40;;;;;;;4.26;100.00;99081.19;4994704;28;20491;-89
2022/11/03 05:31:36;;;;;;;0.40;0.40;;;;;;;4.28;100.00;99079.19;4992878;28;20069;-87
2022/11/03 05:34:10;;;;;;;0.40;0.40;;;;;;;4.24;100.00;99053.97;5005768;28;20064;-87
2022/11/03 05:36:36;;;;;;;0.40;0.40;;;;;;;4.41;100.00;99064.28;5007904;28;20125;-88
2022/11/03 05:39:23;;;;;;;0.40;0.40;;;;;;;4.45;100.00;99066.63;5007865;28;20124;-87
2022/11/03 05:41:48;;;;;;;0.40;0.40;;;;;;;4.37;100.00;99036.41;5023641;28;20399;-88
2022/11/03 05:44:35;;;;;;;0.43;0.43;;;;;;;4.53;100.00;99066.56;4992910;28;20033;-90
2022/11/03 05:47:02;;;;;;;0.40;0.40;;;;;;;4.50;100.00;99064.22;4996664;28;20037;-87
2022/11/03 05:49:28;;;;;;;0.40;0.40;;;;;;;4.45;100.00;99040.84;5006091;28;20041;-86
2022/11/03 05:51:54;;;;;;;0.35;0.35;;;;;;;4.58;100.00;99049.03;5011549;28;20041;-87
2022/11/03 05:54:26;;;;;;;0.40;0.40;;;;;;;4.65;100.00;99053.63;4994104;28;20438;-90
2022/11/03 05:56:53;;;;;;;0.40;0.40;;;;;;;4.68;100.00;99055.94;5002000;28;20398;-86
2022/11/03 05:59:22;;;;;;;0.40;0.40;;;;;;;4.65;100.00;99050.97;4994122;28;20057;-87
2022/11/03 06:01:48;;;;;;;0.40;0.40;;;;;;;4.39;100.00;99026.41;4989664;28;20135;-87
2022/11/03 06:04:30;;;;;;;1.00;1.00;;;;;;;4.41;100.00;99035.03;5023588;28;20088;-88
2022/11/03 06:07:01;;;;;;;0.40;0.40;;;;;;;4.30;100.00;99035.44;5010290;28;20048;-87
2022/11/03 06:09:27;;;;;;;0.40;0.40;;;;;;;4.30;100.00;99029.31;5027648;28;21619;-87
2022/11/03 06:11:55;;;;;;;0.40;0.40;;;;;;;4.41;100.00;99040.34;5011421;28;20396;-87
2022/11/03 06:14:24;;;;;;;0.40;0.40;;;;;;;4.29;100.00;99019.69;4989482;28;20033;-91
2022/11/03 06:16:59;;;;;;;0.40;0.40;;;;;;;4.20;100.00;99021.56;5041961;28;20052;-87
2022/11/03 06:19:30;;;;;;;0.40;0.40;;;;;;;4.30;100.00;99022.16;5025759;28;20037;-87
2022/11/03 06:21:58;;;;;;;0.40;0.40;;;;;;;4.17;100.00;99006.78;5012493;28;20483;-88
2022/11/03 06:24:27;;;;;;;0.40;0.40;;;;;;;4.04;100.00;98984.44;5007267;28;20095;-92
2022/11/03 06:26:53;;;;;;;8.80;0.93;;;;;;;4.25;100.00;99019.19;4998266;28;20112;-87
2022/11/03 06:29:20;;;;;;;0.40;0.40;;;;;;;4.24;100.00;99017.53;4992176;28;20116;-88
2022/11/03 06:31:49;;;;;;;0.60;0.57;;;;;;;4.22;100.00;99003.59;5015943;28;20133;-88
2022/11/03 06:34:24;;;;;;;0.90;0.55;;;;;;;4.16;100.00;99010.44;5029087;28;20430;-90
2022/11/03 06:36:52;;;;;;;0.40;0.40;;;;;;;4.01;100.00;99004.22;5026166;28;20033;-86
2022/11/03 06:39:20;;;;;;;0.40;0.40;;;;;;;3.84;100.00;98992.88;5028159;28;20033;-86
2022/11/03 06:41:46;;;;;;;0.50;0.50;;;;;;;3.69;100.00;98982.16;5011850;28;20045;-87
2022/11/03 06:44:21;;;;;;;0.43;0.43;;;;;;;3.45;100.00;98969.03;5042321;28;20029;-89
2022/11/03 06:46:47;;;;;;;0.40;0.40;;;;;;;3.48;100.00;98989.91;5008086;28;20057;-89
2022/11/03 06:49:39;;;;;;;0.40;0.40;;;;;;;3.44;100.00;98976.16;4996253;28;20043;-87
2022/11/03 06:52:29;;;;;;;1.20;0.50;;;;;;;3.35;100.00;98969.22;5000272;28;20029;-85
2022/11/03 06:55:12;;;;;;;0.40;0.40;;;;;;;3.36;100.00;98959.41;4995859;28;20097;-92
2022/11/03 06:57:41;;;;;;;0.40;0.40;;;;;;;3.47;100.00;98970.50;5005980;28;20091;-87
2022/11/03 07:00:18;;;;;;;0.40;0.40;;;;;;;3.46;100.00;98954.72;5003233;28;20092;-89
2022/11/03 07:02:56;;;;;;;0.40;0.40;;;;;;;3.53;100.00;98943.22;5007575;28;20066;-90
2022/11/03 07:05:24;;;;;;;0.40;0.40;;;;;;;3.67;100.00;98944.28;5025867;28;20595;-88
2022/11/03 07:08:02;;;;;;;1.20;0.47;;;;;;;3.95;100.00;98971.19;5008036;28;20041;-86
2022/11/03 07:10:30;;;;;;;0.40;0.40;;;;;;;3.78;100.00;98920.97;4988155;28;20491;-87
2022/11/03 07:12:59;;;;;;;0.40;0.40;;;;;;;3.96;100.00;98956.06;5031967;28;20483;-87
2022/11/03 07:15:29;;;;;;;0.43;0.43;;;;;;;3.88;100.00;98937.50;5026709;28;20041;-87
2022/11/03 07:17:56;;;;;;;0.50;0.50;;;;;;;3.95;100.00;98939.28;4998829;28;20037;-87
2022/11/03 07:20:22;;;;;;;0.40;0.40;;;;;;;3.91;100.00;98943.28;5012332;28;20041;-87
2022/11/03 07:22:48;;;;;;;0.40;0.40;;;;;;;3.77;100.00;98927.31;5006952;28;20104;-87
2022/11/03 07:25:19;;;;;;;1.90;0.55;;;;;;;3.67;100.00;98928.34;5025719;28;20064;-87
2022/11/03 07:27:47;;;;;;;1.45;1.23;;;;;;;3.71;100.00;98937.63;5027818;28;20092;-87
2022/11/03 07:30:23;;;;;;;0.88;0.65;;;;;;;3.68;100.00;98947.81;5012310;28;20034;-88
2022/11/03 07:32:53;;;;;;;1.00;0.55;;;;;;;3.45;100.00;98932.63;4988900;28;20396;-87
2022/11/03 07:35:34;;;;;;;0.60;0.60;;;;;;;3.37;100.00;98929.22;4990392;28;20038;-91
2022/11/03 07:38:01;;;;;;;0.80;0.43;;;;;;;3.38;100.00;98931.69;5043555;28;20069;-87
2022/11/03 07:40:27;;;;;;;0.40;0.40;;;;;;;3.32;100.00;98927.06;5025296;28;20029;-88
2022/11/03 07:42:58;;;;;;;1.65;0.70;;;;;;;3.37;100.00;98926.56;5003771;28;20120;-89
2022/11/03 07:45:42;;;;;;;0.82;0.82;;;;;;;3.46;100.00;98934.28;5012643;28;22028;-90
2022/11/03 07:48:18;;;;;;;0.50;0.50;;;;;;;3.63;100.00;98926.25;4992362;28;20145;-88
2022/11/03 07:50:45;;;;;;;0.40;0.40;;;;;;;3.72;100.00;98918.00;4983129;28;20041;-87
2022/11/03 07:53:15;;;;;;;3.58;1.10;;;;;;;3.94;100.00;98923.50;5023353;28;20065;-87
2022/11/03 07:55:43;;;;;;;0.90;0.50;;;;;;;4.00;100.00;98914.00;5008912;28;20465;-87
2022/11/03 07:58:24;;;;;;;0.75;0.73;;;;;;;3.99;100.00;98915.81;4994698;28;20076;-87
2022/11/03 08:00:56;;;;;;;2.88;0.90;;;;;;;3.84;100.00;98907.00;5023744;28;20045;-87
2022/11/03 08:03:51;;;;;;;2.17;0.60;;;;;;;3.72;100.00;98909.22;4986113;28;20041;-87
2022/11/03 08:06:17;;;;;;;2.25;0.60;;;;;;;3.70;100.00;98905.91;5028008;28;20064;-86
2022/11/03 08:08:43;;;;;;;0.60;0.60;;;;;;;3.63;100.00;98903.13;4994030;28;20045;-86
2022/11/03 08:11:12;;;;;;;0.40;0.40;;;;;;;3.63;100.00;98911.13;5008045;28;20059;-87
2022/11/03 08:13:38;;;;;;;8.32;0.68;;;;;;;3.48;100.00;98883.63;5011571;28;20044;-89
2022/11/03 08:16:04;;;;;;;3.85;0.90;;;;;;;3.58;100.00;98902.03;5006603;28;20132;-87
2022/11/03 08:18:30;;;;;;;0.47;0.47;;;;;;;3.62;100.00;98912.09;5025620;28;20072;-87
2022/11/03 08:20:56;;;;;;;0.60;0.60;;;;;;;3.59;100.00;98901.00;5005993;28;20475;-87
2022/11/03 08:23:21;;;;;;;0.50;0.50;;;;;;;3.71;100.00;98919.03;5003309;28;20040;-86
2022/11/03 08:25:47;;;;;;;0.80;0.80;;;;;;;3.61;100.00;98885.72;5036593;28;20476;-85
2022/11/03 08:28:13;;;;;;;0.55;0.55;;;;;;;3.80;100.00;98895.03;5026065;28;20040;-88
2022/11/03 08:30:38;;;;;;;1.92;1.02;;;;;;;3.81;100.00;98880.72;5007748;28;20041;-88
2022/11/03 08:33:04;;;;;;;0.60;0.60;;;;;;;3.95;100.00;98891.44;5020117;28;20095;-88
2022/11/03 08:35:30;;;;;;;0.50;0.50;;;;;;;3.99;100.00;98878.59;4997844;28;20084;-86
2022/11/03 08:37:55;;;;;;;0.60;0.60;;;;;;;4.10;100.00;98893.28;5027938;28;20042;-90
2022/11/03 08:40:21;;;;;;;0.95;0.77;;;;;;;3.96;100.00;98887.75;5013845;28;20038;-87
2022/11/03 08:42:48;;;;;;;0.63;0.63;;;;;;;3.87;100.00;98899.47;5027710;28;20468;-84
2022/11/03 08:45:14;;;;;;;1.27;0.70;;;;;;;3.77;100.00;98892.75;5027710;28;20037;-86
2022/11/03 08:47:40;;;;;;;0.73;0.70;;;;;;;3.86;100.00;98903.13;4994145;28;20034;-85
2022/11/03 08:50:06;;;;;;;1.85;0.57;;;;;;;3.91;100.00;98899.94;5010030;28;20037;-85
2022/11/03 08:52:32;;;;;;;1.95;0.50;;;;;;;3.92;100.00;98891.78;5010241;28;20029;-86
2022/11/03 08:54:57;;;;;;;0.70;0.70;;;;;;;3.93;100.00;98880.13;5009218;28;20034;-88
2022/11/03 08:57:23;;;;;;;0.60;0.60;;;;;;;4.10;100.00;98888.81;5026620;28;20377;-84
2022/11/03 08:59:51;;;;;;;0.57;0.57;;;;;;;4.25;100.00;98893.31;5027488;28;20040;-84
2022/11/03 09:02:17;;;;;;;2.15;1.02;;;;;;;4.31;100.00;98877.47;5026181;28;20075;-84
2022/11/03 09:04:42;;;;;;;0.90;0.90;;;;;;;4.39;100.00;98882.72;4993379;28;20041;-87
2022/11/03 09:07:08;;;;;;;6.45;1.20;;;;;;;4.26;100.00;98849.75;5023378;28;20040;-87
2022/11/03 09:09:34;;;;;;;0.50;0.50;;;;;;;4.52;100.00;98875.91;5027964;28;20033;-87
2022/11/03 09:11:59;;;;;;;1.05;0.63;;;;;;;4.65;100.00;98876.09;5019795;28;20481;-87
2022/11/03 09:14:25;;;;;;;1.23;0.68;;;;;;;4.75;100.00;98875.84;5024686;28;20475;-87
2022/11/03 09:16:50;;;;;;;0.60;0.60;;;;;;;4.82;100.00;98872.25;4990722;28;20071;-88
2022/11/03 09:19:16;;;;;;;0.77;0.55;;;;;;;4.87;100.00;98860.19;5027776;28;20035;-87
2022/11/03 09:21:42;;;;;;;0.52;0.40;;;;;;;4.87;100.00;98842.41;5020526;28;20079;-87
2022/11/03 09:24:07;;;;;;;1.08;0.98;;;;;;;5.08;100.00;98852.28;5007720;28;20115;-87
2022/11/03 09:26:33;;;;;;;2.55;0.80;;;;;;;5.21;100.00;98852.44;5022521;28;20498;-87
2022/11/03 09:28:59;;;;;;;0.70;0.70;;;;;;;5.33;100.00;98849.28;4990133;28;20041;-87
2022/11/03 09:31:27;;;;;;;4.45;0.90;;;;;;;5.42;100.00;98848.13;5021052;28;20449;-87
2022/11/03 09:33:53;;;;;;;5.80;1.60;;;;;;;5.40;100.00;98824.34;5028107;28;20033;-87
2022/11/03 09:36:20;;;;;;;0.85;0.85;;;;;;;5.59;100.00;98840.72;5026925;28;20033;-89
2022/11/03 09:38:46;;;;;;;3.28;1.35;;;;;;;5.63;100.00;98826.81;5011153;28;20041;-87
2022/11/03 09:41:21;;;;;;;0.80;0.80;;;;;;;5.73;100.00;98835.31;5026454;28;20976;-87
2022/11/03 09:43:47;;;;;;;5.35;1.17;;;;;;;5.83;100.00;98828.84;5010291;28;20044;-87
2022/11/03 09:46:14;;;;;;;0.90;0.70;;;;;;;5.92;100.00;98831.16;5018615;28;20029;-87
2022/11/03 09:48:40;;;;;;;5.63;1.15;;;;;;;6.05;100.00;98835.81;4992013;28;20034;-85
2022/11/03 09:51:08;;;;;;;3.85;1.00;;;;;;;6.14;100.00;98837.31;5013554;28;20077;-86
2022/11/03 09:53:34;;;;;;;1.55;0.88;;;;;;;6.21;100.00;98832.03;5008861;28;20053;-86
2022/11/03 09:56:00;;;;;;;3.92;0.95;;;;;;;6.31;100.00;98832.50;5024929;28;20098;-86
2022/11/03 09:58:26;;;;;;;3.60;1.30;;;;;;;6.48;100.00;98841.00;4995099;28;20041;-85
2022/11/03 10:00:51;;;;;;;6.07;1.30;;;;;;;6.54;100.00;98828.75;5014271;28;20046;-86
2022/11/03 10:03:19;;;;;;;4.53;1.13;;;;;;;6.58;100.00;98817.44;5012303;28;20116;-86
2022/11/03 10:05:45;;;;;;;3.80;0.93;;;;;;;6.79;100.00;98848.59;5012195;28;20037;-87
2022/11/03 10:08:21;;;;;;;0.73;0.70;;;;;;;6.87;100.00;98844.91;5022072;28;20123;-87
2022/11/03 10:10:48;;;;;;;6.65;1.25;;;;;;;6.77;100.00;98821.28;5046124;28;20037;-90
2022/11/03 10:13:31;;;;;;;8.73;1.50;;;;;;;6.84;100.00;98815.94;4996137;28;20045;-84
2022/11/03 10:15:58;;;;;;;1.20;0.88;;;;;;;7.02;100.00;98829.56;5008020;28;20092;-85
2022/11/03 10:18:25;;;;;;;4.63;1.52;;;;;;;7.23;100.00;98835.81;5008499;28;20487;-85
2022/11/03 10:20:53;;;;;;;7.15;1.80;;;;;;;7.23;100.00;98820.59;5026512;28;20250;-87
2022/11/03 10:23:19;;;;;;;5.47;1.90;;;;;;;7.56;100.00;98822.50;5016243;28;20117;-88
2022/11/03 10:25:45;;;;;;;9.38;3.10;;;;;;;8.34;100.00;98830.75;4999198;28;20518;-86
2022/11/03 10:28:10;;;;;;;8.07;3.92;;;;;;;9.76;100.00;98838.78;4993982;28;20045;-85
2022/11/03 10:31:07;;;;;;;4.50;1.67;;;;;;;11.73;99.75;98829.00;5029620;28;20513;-85
2022/11/03 10:33:37;;;;;;;2.15;1.30;;;;;;;13.32;91.57;98822.59;5032746;28;20233;-85
2022/11/03 10:36:16;;;;;;;4.88;1.40;;;;;;;15.29;82.87;98838.56;4998508;28;20033;-85
2022/11/03 10:38:42;;;;;;;2.72;1.30;;;;;;;16.70;78.72;98828.41;5027928;28;20384;-88
2022/11/03 10:41:22;;;;;;;6.10;1.50;;;;;;;17.73;76.46;98834.22;4999550;28;20062;-85
2022/11/03 10:44:04;;;;;;;6.80;2.15;;;;;;;18.78;76.68;98839.09;5010592;28;20533;-86
2022/11/03 10:46:31;;;;;;;8.13;3.30;;;;;;;18.73;72.02;98835.56;5018997;28;20045;-86
2022/11/03 10:49:09;;;;;;;9.65;4.75;;;;;;;18.00;74.67;98820.41;4987070;28;20437;-85
2022/11/03 10:51:35;;;;;;;6.78;2.50;;;;;;;17.54;77.24;98831.19;5013853;28;20037;-86
2022/11/03 10:54:02;;;;;;;7.88;3.47;;;;;;;15.64;84.94;98850.88;5011445;28;20033;-87
2022/11/03 10:56:28;;;;;;;4.93;1.80;;;;;;;13.52;91.29;98839.19;5029224;28;20036;-87
2022/11/03 10:58:58;;;;;;;8.55;4.18;;;;;;;12.25;100.00;98848.91;5038028;28;20034;-89
2022/11/03 11:01:24;;;;;;;6.88;3.30;;;;;;;11.70;100.00;98846.44;5024969;28;20021;-86
2022/11/03 11:03:50;;;;;;;8.18;2.42;;;;;;;11.50;100.00;98862.03;5024259;28;20385;-86
2022/11/03 11:06:27;;;;;;;7.70;3.10;;;;;;;11.30;100.00;98859.59;5009556;28;20050;-89
2022/11/03 11:08:56;;;;;;;6.10;2.20;;;;;;;11.39;100.00;98848.31;5021121;28;20091;-86
2022/11/03 11:11:22;;;;;;;2.92;1.67;;;;;;;12.35;100.00;98855.59;5023873;28;20055;-90
2022/11/03 11:14:27;;;;;;;4.43;1.60;;;;;;;14.20;100.00;98860.88;5012833;28;20030;-86
2022/11/03 11:16:53;;;;;;;7.35;1.67;;;;;;;15.69;90.92;98850.97;4958109;28;20446;-87
2022/11/03 11:19:21;;;;;;;2.80;1.02;;;;;;;15.20;89.95;98844.72;5022977;28;20059;-89
2022/11/03 11:21:48;;;;;;;7.18;1.27;;;;;;;14.37;96.13;98856.28;5012173;28;20034;-86
2022/11/03 11:24:42;;;;;;;3.78;1.20;;;;;;;15.11;91.16;98853.28;5028636;28;20061;-87
2022/11/03 11:27:33;;;;;;;5.05;1.40;;;;;;;15.04;90.12;98846.41;5030182;28;20491;-86
2022/11/03 11:30:00;;;;;;;3.42;1.70;;;;;;;14.85;89.78;98840.50;5009155;28;20080;-87
2022/11/03 11:32:35;;;;;;;4.25;1.17;;;;;;;13.82;91.64;98840.78;5014808;28;20040;-87
2022/11/03 11:35:01;;;;;;;2.97;1.23;;;;;;;13.01;97.46;98845.44;5030790;28;20029;-89
2022/11/03 11:37:26;;;;;;;5.03;1.58;;;;;;;12.42;100.00;98840.13;5009191;28;20033;-86
2022/11/03 11:39:54;;;;;;;1.40;0.93;;;;;;;12.80;98.97;98825.31;5014667;28;20052;-87
2022/11/03 11:42:20;;;;;;;1.00;0.75;;;;;;;12.99;96.60;98818.69;5029733;28;20038;-87
2022/11/03 11:45:02;;;;;;;1.35;0.75;;;;;;;13.79;94.33;98833.19;5030393;28;20034;-88
2022/11/03 11:47:39;;;;;;;5.95;1.60;;;;;;;12.17;98.05;98840.34;5006299;28;20109;-86
2022/11/03 11:50:05;;;;;;;4.85;1.85;;;;;;;11.94;100.00;98841.16;5006634;28;20044;-87
2022/11/03 11:52:32;;;;;;;1.02;0.65;;;;;;;11.20;100.00;98811.75;5023309;28;20116;-87
2022/11/03 11:54:57;;;;;;;2.92;0.93;;;;;;;11.40;100.00;98801.50;5024151;28;20103;-88
2022/11/03 11:57:23;;;;;;;2.80;0.93;;;;;;;11.63;100.00;98800.75;5012270;28;20641;-87
2022/11/03 11:59:50;;;;;;;0.77;0.77;;;;;;;12.17;100.00;98837.63;4992012;28;20169;-87
2022/11/03 12:02:19;;;;;;;2.35;0.90;;;;;;;12.50;100.00;98837.88;5005549;28;20095;-85
2022/11/03 12:04:45;;;;;;;1.85;1.25;;;;;;;12.82;100.00;98840.19;5013003;28;20527;-87